Hinsdale, Illinois
Current Conditions -  °F | °C
As of 5:53 PM on Saturday 22 Nov 2014 (Local Time) from KMDW Reporting Station
Broken Clouds Broken Clouds  
Wind Chill: 53°   Ceiling: 5000
Heat Index: 53°   Visibility: 10mi
Dew Point: 47°   Wind: 9mph
Humidity: 80%   Direction: 200°SSW
Pressure: 29.88"   Gusts: NA
Location:  41.8°N, 87.93°W
Report Text: KMDW 222353Z 20008KT 10SM FEW023 BKN050 12/08 A2988 RMK AO2 SLP122 T01170083 10117 20072 57003
Loading
Personal Weather Stations






























Interactive Weather Map New forecast layout! Learn more

10-Day Weather Forecast

Advertisements
Track Severe Weather on mobile